createdAt,value
2023-05-05T00:01:09.853Z,10.45
2023-05-05T00:03:39.692Z,13.13
2023-05-05T00:06:09.477Z,14.10
2023-05-05T00:08:36.359Z,9.85
2023-05-05T00:11:03.129Z,9.73
2023-05-05T00:13:29.963Z,10.20
2023-05-05T00:15:58.826Z,12.02
2023-05-05T00:18:25.657Z,13.27
2023-05-05T00:20:52.531Z,9.60
2023-05-05T00:23:23.900Z,19.98
2023-05-05T00:25:50.585Z,16.85
2023-05-05T00:28:17.407Z,16.45
2023-05-05T00:30:45.661Z,13.05
2023-05-05T00:33:15.150Z,13.82
2023-05-05T00:35:44.836Z,16.83
2023-05-05T00:38:11.709Z,15.10
2023-05-05T00:40:38.481Z,11.38
2023-05-05T00:43:10.325Z,16.67
2023-05-05T00:48:07.667Z,15.57
2023-05-05T00:50:35.181Z,19.27
2023-05-05T00:53:07.626Z,11.32
2023-05-05T00:55:35.552Z,9.77
2023-05-05T00:58:08.795Z,12.43
2023-05-05T01:00:37.835Z,10.95
2023-05-05T01:03:05.389Z,11.88
2023-05-05T01:05:47.332Z,12.65
2023-05-05T01:08:41.025Z,12.32
2023-05-05T01:11:31.684Z,11.05
2023-05-05T01:14:25.576Z,13.27
2023-05-05T01:17:02.692Z,11.05
2023-05-05T01:19:56.814Z,9.80
2023-05-05T01:22:53.583Z,11.30
2023-05-05T01:25:33.778Z,13.30
2023-05-05T01:28:28.860Z,10.88
2023-05-05T01:31:44.352Z,15.93
2023-05-05T01:34:18.752Z,11.35
2023-05-05T01:37:15.104Z,10.43
2023-05-05T01:39:44.770Z,11.35
2023-05-05T01:42:16.751Z,10.48
2023-05-05T01:44:45.007Z,11.05
2023-05-05T01:47:22.410Z,10.75
2023-05-05T01:49:54.091Z,11.73
2023-05-05T01:52:22.758Z,12.60
2023-05-05T01:54:50.871Z,12.00
2023-05-05T01:57:19.394Z,11.85
2023-05-05T01:59:46.588Z,11.43
2023-05-05T02:02:15.600Z,10.73
2023-05-05T02:05:20.213Z,10.88
2023-05-05T02:07:57.084Z,9.23
2023-05-05T02:10:24.470Z,10.38
2023-05-05T02:12:52.327Z,15.48
2023-05-05T02:15:21.994Z,10.18
2023-05-05T02:17:52.051Z,17.10
2023-05-05T02:20:20.297Z,9.80
2023-05-05T02:22:47.512Z,11.05
2023-05-05T02:25:15.459Z,11.55
2023-05-05T02:27:46.237Z,11.45
2023-05-05T02:30:16.070Z,10.30
2023-05-05T02:33:13.015Z,12.88
2023-05-05T02:35:45.721Z,9.52
2023-05-05T02:38:21.911Z,11.43
2023-05-05T02:40:56.512Z,11.45
2023-05-05T02:43:32.356Z,14.52
2023-05-05T02:46:01.222Z,12.27
2023-05-05T02:48:29.852Z,11.93
2023-05-05T02:50:58.128Z,9.90
2023-05-05T02:53:27.363Z,16.98
2023-05-05T02:56:21.389Z,12.35
2023-05-05T02:58:56.948Z,11.20
2023-05-05T03:01:26.897Z,11.60
2023-05-05T03:04:04.888Z,10.52
2023-05-05T03:06:35.429Z,16.83
2023-05-05T03:09:19.529Z,12.30
2023-05-05T03:12:07.228Z,11.95
2023-05-05T03:16:02.258Z,10.38
2023-05-05T03:22:08.980Z,8.67
2023-05-05T03:24:41.519Z,10.27
2023-05-05T03:27:16.822Z,9.88
2023-05-05T03:29:46.140Z,9.50
2023-05-05T03:32:13.245Z,9.80
2023-05-05T03:34:45.622Z,16.60
2023-05-05T03:37:48.696Z,10.57
2023-05-05T03:40:18.350Z,11.07
2023-05-05T03:42:44.938Z,8.13
2023-05-05T03:45:12.174Z,14.32
2023-05-05T03:47:40.293Z,9.48
2023-05-05T03:50:09.280Z,10.68
2023-05-05T03:52:40.711Z,7.85
2023-05-05T03:55:07.813Z,12.02
2023-05-05T03:57:34.665Z,11.25
2023-05-05T04:00:01.502Z,11.98
2023-05-05T04:02:29.155Z,12.45
2023-05-05T04:04:56.143Z,13.57
2023-05-05T04:07:25.051Z,12.00
2023-05-05T04:09:55.168Z,10.02
2023-05-05T04:12:23.315Z,9.23
2023-05-05T04:14:55.402Z,11.32
2023-05-05T04:17:22.255Z,12.55
2023-05-05T04:20:00.498Z,15.90
2023-05-05T04:22:27.456Z,15.07
2023-05-05T04:24:54.630Z,8.77
2023-05-05T04:27:30.104Z,14.02
2023-05-05T04:29:57.149Z,12.45
2023-05-05T04:32:23.841Z,10.80
2023-05-05T04:34:50.707Z,15.07
2023-05-05T04:37:17.371Z,12.13
2023-05-05T04:39:55.243Z,10.32
2023-05-05T04:42:21.923Z,10.77
2023-05-05T04:44:50.736Z,8.95
2023-05-05T04:47:17.629Z,8.48
2023-05-05T04:49:45.050Z,10.57
2023-05-05T04:52:17.785Z,17.95
2023-05-05T04:54:44.386Z,33.75
2023-05-05T04:57:19.454Z,16.20
2023-05-05T04:59:46.325Z,15.70
2023-05-05T05:02:13.148Z,13.30
2023-05-05T05:04:40.067Z,11.30
2023-05-05T05:07:06.684Z,11.80
2023-05-05T05:09:33.422Z,10.88
2023-05-05T05:12:01.300Z,10.75
2023-05-05T05:14:28.277Z,10.90
2023-05-05T05:16:55.029Z,14.05
2023-05-05T05:19:21.797Z,10.55
2023-05-05T05:21:53.248Z,13.93
2023-05-05T05:24:19.905Z,10.80
2023-05-05T05:26:47.651Z,13.23
2023-05-05T05:29:14.493Z,14.57
2023-05-05T05:31:41.428Z,13.95
2023-05-05T05:34:08.711Z,10.02
2023-05-05T05:36:36.452Z,12.73
2023-05-05T05:39:04.160Z,12.52
2023-05-05T05:41:31.653Z,13.15
2023-05-05T05:43:58.265Z,10.80
2023-05-05T05:46:28.189Z,10.95
2023-05-05T05:48:55.036Z,13.70
2023-05-05T05:51:21.700Z,13.68
2023-05-05T05:53:52.132Z,10.35
2023-05-05T05:56:20.857Z,10.38
2023-05-05T05:58:49.953Z,11.60
2023-05-05T06:01:17.268Z,10.57
2023-05-05T06:03:46.377Z,8.43
2023-05-05T06:06:16.173Z,11.57
2023-05-05T06:08:43.170Z,13.77
2023-05-05T06:11:11.452Z,18.08
2023-05-05T06:13:38.340Z,10.57
2023-05-05T06:16:15.105Z,14.43
2023-05-05T06:18:58.759Z,9.80
2023-05-05T06:21:25.911Z,17.15
2023-05-05T06:23:55.713Z,13.70
2023-05-05T06:26:26.169Z,9.05
2023-05-05T06:28:53.112Z,13.18
2023-05-05T06:31:19.889Z,15.10
2023-05-05T06:33:46.680Z,7.63
2023-05-05T06:36:17.330Z,11.52
2023-05-05T06:38:54.988Z,16.10
2023-05-05T06:41:22.468Z,11.75
2023-05-05T06:43:49.216Z,11.25
2023-05-05T06:46:15.976Z,15.90
2023-05-05T06:48:42.908Z,16.65
2023-05-05T06:51:10.184Z,11.45
2023-05-05T06:53:37.618Z,10.63
2023-05-05T06:56:04.806Z,14.75
2023-05-05T06:58:33.274Z,12.02
2023-05-05T07:00:59.931Z,14.13
2023-05-05T07:03:28.029Z,13.18
2023-05-05T07:05:55.310Z,17.50
2023-05-05T07:08:22.284Z,18.92
2023-05-05T07:10:49.264Z,14.77
2023-05-05T07:13:17.385Z,20.08
2023-05-05T07:15:46.627Z,17.30
2023-05-05T07:18:14.396Z,10.25
2023-05-05T07:20:42.242Z,13.32
2023-05-05T07:23:09.078Z,11.27
2023-05-05T07:25:36.071Z,9.20
2023-05-05T07:28:06.158Z,10.38
2023-05-05T07:30:32.807Z,10.88
2023-05-05T07:33:03.075Z,7.63
2023-05-05T07:35:30.539Z,10.75
2023-05-05T07:37:59.310Z,9.93
2023-05-05T07:40:26.267Z,8.10
2023-05-05T07:42:53.364Z,8.85
2023-05-05T07:45:20.184Z,8.27
2023-05-05T07:47:47.303Z,8.20
2023-05-05T07:50:14.153Z,10.05
2023-05-05T07:55:14.491Z,9.35
2023-05-05T07:57:41.595Z,6.57
2023-05-05T08:00:09.569Z,8.23
2023-05-05T08:02:36.744Z,7.55
2023-05-05T08:05:04.375Z,7.72
2023-05-05T08:07:31.162Z,6.70
2023-05-05T08:10:02.572Z,7.75
2023-05-05T08:12:31.424Z,10.00
2023-05-05T08:14:58.178Z,11.10
2023-05-05T08:17:27.282Z,6.97
2023-05-05T08:19:54.202Z,6.53
2023-05-05T08:22:22.398Z,8.40
2023-05-05T08:24:49.072Z,5.90
2023-05-05T08:27:17.182Z,7.07
2023-05-05T08:29:45.409Z,5.95
2023-05-05T08:32:21.495Z,7.68
2023-05-05T08:34:48.388Z,6.65
2023-05-05T08:37:15.105Z,6.10
2023-05-05T08:39:41.915Z,5.35
2023-05-05T08:42:09.448Z,6.65
2023-05-05T08:44:36.855Z,6.60
2023-05-05T08:47:13.536Z,5.40
2023-05-05T08:49:48.821Z,5.47
2023-05-05T08:52:23.641Z,6.45
2023-05-05T08:55:00.949Z,7.78
2023-05-05T08:57:46.579Z,8.35
2023-05-05T09:00:17.528Z,5.28
2023-05-05T09:02:45.253Z,4.60
2023-05-05T09:05:12.386Z,6.60
2023-05-05T09:07:43.798Z,5.80
2023-05-05T09:10:12.273Z,7.30
2023-05-05T09:12:42.890Z,4.80
2023-05-05T09:15:15.349Z,4.75
2023-05-05T09:17:43.259Z,4.72
2023-05-05T09:20:14.067Z,6.82
2023-05-05T09:22:43.113Z,7.67
2023-05-05T09:25:12.170Z,5.07
2023-05-05T09:27:45.717Z,10.30
2023-05-05T09:30:18.751Z,5.07
2023-05-05T09:32:52.954Z,4.63
2023-05-05T09:35:27.789Z,3.83
2023-05-05T09:37:54.883Z,4.72
2023-05-05T09:40:23.099Z,8.18
2023-05-05T09:43:02.293Z,6.32
2023-05-05T09:45:29.372Z,4.40
2023-05-05T09:47:59.527Z,5.75
2023-05-05T09:50:30.769Z,3.28
2023-05-05T09:53:00.162Z,3.60
2023-05-05T09:55:36.456Z,5.00
2023-05-05T09:58:24.562Z,3.58
2023-05-05T10:00:51.887Z,3.75
2023-05-05T10:03:25.203Z,4.57
2023-05-05T10:06:02.975Z,5.28
2023-05-05T10:08:31.674Z,3.45
2023-05-05T10:11:07.089Z,4.93
2023-05-05T10:13:51.149Z,4.72
2023-05-05T10:16:20.530Z,3.83
2023-05-05T10:18:47.711Z,3.50
2023-05-05T10:21:20.040Z,3.47
2023-05-05T10:23:58.119Z,4.40
2023-05-05T10:26:33.186Z,3.72
2023-05-05T10:29:09.143Z,3.90
2023-05-05T10:31:48.726Z,3.75
2023-05-05T10:34:29.698Z,3.50
2023-05-05T10:37:00.488Z,2.92
2023-05-05T10:39:28.299Z,2.90
2023-05-05T10:42:19.882Z,5.05
2023-05-05T10:44:49.372Z,3.15
2023-05-05T10:47:21.398Z,3.92
2023-05-05T10:49:51.979Z,3.58
2023-05-05T10:52:49.595Z,2.80
2023-05-05T10:55:21.252Z,2.78
2023-05-05T10:57:53.213Z,5.55
2023-05-05T11:00:38.718Z,3.15
2023-05-05T11:03:17.516Z,3.42
2023-05-05T11:06:09.228Z,2.97
2023-05-05T11:11:11.372Z,3.08
2023-05-05T11:13:42.214Z,4.15
2023-05-05T11:16:48.366Z,2.95
2023-05-05T11:19:43.547Z,3.63
2023-05-05T11:22:11.009Z,2.88
2023-05-05T11:24:39.879Z,2.67
2023-05-05T11:27:15.573Z,2.58
2023-05-05T11:30:06.902Z,2.67
2023-05-05T11:32:33.977Z,2.88
2023-05-05T11:35:01.722Z,3.65
2023-05-05T11:37:32.114Z,3.22
2023-05-05T11:40:26.984Z,2.72
2023-05-05T11:43:05.752Z,3.00
2023-05-05T11:45:35.572Z,2.90
2023-05-05T11:48:25.059Z,2.53
2023-05-05T11:50:56.369Z,2.92
2023-05-05T11:53:23.420Z,3.42
2023-05-05T11:56:05.976Z,3.10
2023-05-05T11:58:43.349Z,3.05
2023-05-05T12:01:13.440Z,2.80
2023-05-05T12:03:45.328Z,3.35
2023-05-05T12:06:13.552Z,2.85
2023-05-05T12:08:42.847Z,3.05
2023-05-05T12:11:11.374Z,2.90
2023-05-05T12:13:38.192Z,3.25
2023-05-05T12:16:13.098Z,2.65
2023-05-05T12:18:40.709Z,3.35
2023-05-05T12:21:17.663Z,5.22
2023-05-05T12:23:45.052Z,3.28
2023-05-05T12:26:29.299Z,3.08
2023-05-05T12:29:00.404Z,3.70
2023-05-05T12:31:38.726Z,3.20
2023-05-05T12:34:13.653Z,2.80
2023-05-05T12:36:40.937Z,2.78
2023-05-05T12:39:08.294Z,3.13
2023-05-05T12:41:38.304Z,4.32
2023-05-05T12:44:05.294Z,2.92
2023-05-05T12:46:45.550Z,3.42
2023-05-05T12:49:12.875Z,3.47
2023-05-05T12:51:54.230Z,6.75
2023-05-05T12:54:23.069Z,3.55
2023-05-05T12:56:49.988Z,3.50
2023-05-05T12:59:27.670Z,3.33
2023-05-05T13:02:02.721Z,3.20
2023-05-05T13:04:47.674Z,2.92
2023-05-05T13:07:15.541Z,3.33
2023-05-05T13:09:42.638Z,3.17
2023-05-05T13:12:16.572Z,3.60
2023-05-05T13:14:44.425Z,3.10
2023-05-05T13:17:36.460Z,2.92
2023-05-05T13:20:03.305Z,3.25
2023-05-05T13:22:30.138Z,3.53
2023-05-05T13:24:58.023Z,4.68
2023-05-05T13:27:26.381Z,3.13
2023-05-05T13:29:59.721Z,4.60
2023-05-05T13:32:26.710Z,3.15
2023-05-05T13:34:54.794Z,3.30
2023-05-05T13:37:21.839Z,3.17
2023-05-05T13:39:48.796Z,3.35
2023-05-05T13:42:15.575Z,3.75
2023-05-05T13:44:58.746Z,3.80
2023-05-05T13:47:26.312Z,3.72
2023-05-05T13:49:53.332Z,5.85
2023-05-05T13:52:20.224Z,3.70
2023-05-05T13:54:46.906Z,3.72
2023-05-05T13:57:43.468Z,4.85
2023-05-05T14:00:16.579Z,3.00
2023-05-05T14:02:43.913Z,5.15
2023-05-05T14:05:11.174Z,2.80
2023-05-05T14:07:50.295Z,3.20
2023-05-05T14:10:18.903Z,3.83
2023-05-05T14:12:52.903Z,3.72
2023-05-05T14:16:18.606Z,4.45
2023-05-05T14:22:04.364Z,4.05
2023-05-05T14:24:32.835Z,3.83
2023-05-05T14:27:00.985Z,4.10
2023-05-05T14:29:50.951Z,4.28
2023-05-05T14:32:23.368Z,3.53
2023-05-05T14:34:51.638Z,6.55
2023-05-05T14:37:19.057Z,3.67
2023-05-05T14:39:46.014Z,3.70
2023-05-05T14:42:15.316Z,3.75
2023-05-05T14:44:42.049Z,3.45
2023-05-05T14:47:25.152Z,4.15
2023-05-05T14:49:56.357Z,3.83
2023-05-05T14:52:23.837Z,4.50
2023-05-05T14:54:50.625Z,4.05
2023-05-05T14:57:17.392Z,4.05
2023-05-05T14:59:46.024Z,5.95
2023-05-05T15:02:12.746Z,3.30
2023-05-05T15:04:40.910Z,3.53
2023-05-05T15:07:10.698Z,3.90
2023-05-05T15:09:38.731Z,3.60
2023-05-05T15:12:11.274Z,10.63
2023-05-05T15:14:40.993Z,3.80
2023-05-05T15:17:11.789Z,4.75
2023-05-05T15:19:38.625Z,4.90
2023-05-05T15:22:05.695Z,4.13
2023-05-05T15:24:32.561Z,3.70
2023-05-05T15:26:59.309Z,7.85
2023-05-05T15:29:26.088Z,3.85
2023-05-05T15:31:52.826Z,3.63
2023-05-05T15:34:20.997Z,11.50
2023-05-05T15:36:51.694Z,5.13
2023-05-05T15:39:18.963Z,4.10
2023-05-05T15:41:45.910Z,4.43
2023-05-05T15:44:13.128Z,4.22
2023-05-05T15:46:41.090Z,5.10
2023-05-05T15:49:07.743Z,8.65
2023-05-05T15:51:34.346Z,4.45
2023-05-05T15:54:01.219Z,5.43
2023-05-05T15:56:28.575Z,4.07
2023-05-05T15:58:55.323Z,4.38
2023-05-05T16:01:22.091Z,4.78
2023-05-05T16:03:48.776Z,6.68
2023-05-05T16:06:15.458Z,4.45
2023-05-05T16:08:42.504Z,4.03
2023-05-05T16:11:09.275Z,4.18
2023-05-05T16:13:36.302Z,4.05
2023-05-05T16:16:08.042Z,5.05
2023-05-05T16:18:36.205Z,6.90
2023-05-05T16:21:03.939Z,6.40
2023-05-05T16:23:30.768Z,6.13
2023-05-05T16:25:57.558Z,5.90
2023-05-05T16:28:25.017Z,5.88
2023-05-05T16:30:52.925Z,5.10
2023-05-05T16:33:21.473Z,5.13
2023-05-05T16:35:48.536Z,4.43
2023-05-05T16:38:15.233Z,9.70
2023-05-05T16:40:41.990Z,8.23
2023-05-05T16:43:08.768Z,4.55
2023-05-05T16:45:35.578Z,5.20
2023-05-05T16:48:02.455Z,4.03
2023-05-05T16:50:29.278Z,5.05
2023-05-05T16:52:58.421Z,4.85
2023-05-05T16:55:26.054Z,5.63
2023-05-05T16:57:55.234Z,3.97
2023-05-05T17:03:07.473Z,9.50
2023-05-05T17:05:34.186Z,6.03
2023-05-05T17:08:00.942Z,5.82
2023-05-05T17:10:30.898Z,4.78
2023-05-05T17:12:57.740Z,4.70
2023-05-05T17:15:24.613Z,5.00
2023-05-05T17:17:56.095Z,6.05
2023-05-05T17:22:51.882Z,5.35
2023-05-05T17:25:18.987Z,5.38
2023-05-05T17:27:46.006Z,5.85
2023-05-05T17:30:13.316Z,5.47
2023-05-05T17:32:42.720Z,11.40
2023-05-05T17:35:18.146Z,5.55
2023-05-05T17:37:47.402Z,6.05
2023-05-05T17:40:14.778Z,6.50
2023-05-05T17:42:41.664Z,6.50
2023-05-05T17:45:12.257Z,5.32
2023-05-05T17:47:39.630Z,4.97
2023-05-05T17:50:07.149Z,6.78
2023-05-05T17:52:34.149Z,6.57
2023-05-05T17:55:04.384Z,6.28
2023-05-05T17:57:39.510Z,6.43
2023-05-05T18:00:07.232Z,6.90
2023-05-05T18:02:37.043Z,9.65
2023-05-05T18:05:05.533Z,7.38
2023-05-05T18:07:33.776Z,8.15
2023-05-05T18:10:00.724Z,6.43
2023-05-05T18:12:32.271Z,8.63
2023-05-05T18:17:30.930Z,7.07
2023-05-05T18:19:57.912Z,7.45
2023-05-05T18:22:25.130Z,6.35
2023-05-05T18:25:00.457Z,9.45
2023-05-05T18:27:36.262Z,11.63
2023-05-05T18:30:05.080Z,8.95
2023-05-05T18:32:32.391Z,6.47
2023-05-05T18:35:01.781Z,6.82
2023-05-05T18:37:32.244Z,6.25
2023-05-05T18:39:59.130Z,10.20
2023-05-05T18:42:30.985Z,7.93
2023-05-05T18:44:57.869Z,8.15
2023-05-05T18:47:35.170Z,11.63
2023-05-05T18:50:04.201Z,6.70
2023-05-05T18:52:49.997Z,10.43
2023-05-05T18:55:19.238Z,8.95
2023-05-05T18:57:55.063Z,7.95
2023-05-05T19:00:23.851Z,9.07
2023-05-05T19:02:51.542Z,7.40
2023-05-05T19:05:18.683Z,6.90
2023-05-05T19:07:55.014Z,10.50
2023-05-05T19:10:23.080Z,7.93
2023-05-05T19:12:52.254Z,7.75
2023-05-05T19:15:23.721Z,8.32
2023-05-05T19:17:50.819Z,6.68
2023-05-05T19:20:17.756Z,12.15
2023-05-05T19:22:44.531Z,6.85
2023-05-05T19:25:23.425Z,11.77
2023-05-05T19:27:51.766Z,10.98
2023-05-05T19:30:18.522Z,7.03
2023-05-05T19:32:51.753Z,7.40
2023-05-05T19:35:27.361Z,8.60
2023-05-05T19:37:56.574Z,8.23
2023-05-05T19:40:23.321Z,8.60
2023-05-05T19:42:50.240Z,7.18
2023-05-05T19:45:17.976Z,7.68
2023-05-05T19:47:45.690Z,8.63
2023-05-05T19:50:15.426Z,8.73
2023-05-05T19:52:44.604Z,9.07
2023-05-05T19:55:13.467Z,12.98
2023-05-05T19:57:40.756Z,9.68
2023-05-05T20:00:10.692Z,13.00
2023-05-05T20:02:40.983Z,15.73
2023-05-05T20:05:08.621Z,19.58
2023-05-05T20:07:36.072Z,12.77
2023-05-05T20:10:10.357Z,18.70
2023-05-05T20:12:37.422Z,8.75
2023-05-05T20:15:04.800Z,11.23
2023-05-05T20:17:35.512Z,8.93
2023-05-05T20:20:03.399Z,10.63
2023-05-05T20:22:31.155Z,13.02
2023-05-05T20:24:58.337Z,12.18
2023-05-05T20:27:26.659Z,14.32
2023-05-05T20:29:54.799Z,14.65
2023-05-05T20:32:22.016Z,14.73
2023-05-05T20:34:48.994Z,17.55
2023-05-05T20:37:15.891Z,15.05
2023-05-05T20:39:44.423Z,16.73
2023-05-05T20:42:14.155Z,12.80
2023-05-05T20:44:45.862Z,11.73
2023-05-05T20:47:23.173Z,11.88
2023-05-05T20:49:49.831Z,10.35
2023-05-05T20:52:16.672Z,16.95
2023-05-05T20:54:46.826Z,17.42
2023-05-05T20:57:13.626Z,15.27
2023-05-05T20:59:44.093Z,15.25
2023-05-05T21:02:12.172Z,15.10
2023-05-05T21:04:38.964Z,13.85
2023-05-05T21:07:07.292Z,15.63
2023-05-05T21:09:35.579Z,13.73
2023-05-05T21:12:06.249Z,15.70
2023-05-05T21:14:33.663Z,15.13
2023-05-05T21:17:01.536Z,15.02
2023-05-05T21:19:28.185Z,14.32
2023-05-05T21:21:59.391Z,15.48
2023-05-05T21:24:28.295Z,18.60
2023-05-05T21:26:56.412Z,16.42
2023-05-05T21:29:26.817Z,12.40
2023-05-05T21:32:04.607Z,20.15
2023-05-05T21:34:32.625Z,13.93
2023-05-05T21:37:05.755Z,16.27
2023-05-05T21:39:34.368Z,18.20
2023-05-05T21:42:01.506Z,16.05
2023-05-05T21:44:29.951Z,14.05
2023-05-05T21:46:57.870Z,14.88
2023-05-05T21:49:29.467Z,14.05
2023-05-05T21:54:46.941Z,13.73
2023-05-05T21:57:13.768Z,19.60
2023-05-05T21:59:41.422Z,14.27
2023-05-05T22:02:10.591Z,12.05
2023-05-05T22:04:38.166Z,19.95
2023-05-05T22:07:04.833Z,17.42
2023-05-05T22:09:31.909Z,19.02
2023-05-05T22:12:02.688Z,18.73
2023-05-05T22:14:34.181Z,14.02
2023-05-05T22:17:01.447Z,19.77
2023-05-05T22:19:30.377Z,11.93
2023-05-05T22:22:01.223Z,16.20
2023-05-05T22:24:28.020Z,17.92
2023-05-05T22:27:06.100Z,14.30
2023-05-05T22:29:34.617Z,16.98
2023-05-05T22:32:03.955Z,21.35
2023-05-05T22:34:36.855Z,13.52
2023-05-05T22:37:03.788Z,21.80
2023-05-05T22:39:30.834Z,17.35
2023-05-05T22:42:01.017Z,15.73
2023-05-05T22:44:30.606Z,17.38
2023-05-05T22:46:59.964Z,19.70
2023-05-05T22:49:34.237Z,25.92
2023-05-05T22:52:03.873Z,13.85
2023-05-05T22:54:30.581Z,19.52
2023-05-05T22:56:57.288Z,11.30
2023-05-05T22:59:26.159Z,17.65
2023-05-05T23:01:53.031Z,11.02
2023-05-05T23:04:19.763Z,13.30
2023-05-05T23:06:46.998Z,11.43
2023-05-05T23:09:14.102Z,13.48
2023-05-05T23:11:43.172Z,21.05
2023-05-05T23:14:09.758Z,19.17
2023-05-05T23:16:36.678Z,12.80
2023-05-05T23:19:03.790Z,25.13
2023-05-05T23:21:33.980Z,17.63
2023-05-05T23:24:06.703Z,16.42
2023-05-05T23:26:33.391Z,16.05
2023-05-05T23:29:02.557Z,15.25
2023-05-05T23:31:29.296Z,16.25
2023-05-05T23:33:55.987Z,21.10
2023-05-05T23:36:27.672Z,17.40
